Share

Kinards, SC (29355)

Newberry (KEOE) Elev 568 ft | 34.31 °N, 81.64 °W | Change Station

Current weather conditions updated 10 minutes ago

Clear
Clear
57 °F
Feels Like 57 °F
N
9
Wind Variable Wind from ENE
Gusts 18 mph
Sunrise 6:53 AM
Sunset 8:00 PM
Moon Waning Gibbous

Today is forecast to be Warmer than yesterday.

Pressure 30.49 in
Visibility 10.0 miles
Clouds Clear
Dew Point 28 °F
Humidity 33%
Rainfall 0.00 in
Snow Depth Not available.
UV 11 out of 16
Pollen 9.40 out of 12
Ozone Good
Flu Activity Local Activity
METAR KEOE 171715Z AUTO 06008G16KT 10SM CLR 14/M02 A3049 RMK AO2

More Conditions Fewer Conditions

Pressure 30.49 in
Visibility 10.0 miles
Clouds Clear
Dew Point 28 °F
Humidity 33%
Rainfall 0.00 in
Snow Depth Not available.
UV 11 out of 16
Pollen 9.40 out of 12
Ozone Good
Flu Activity Local Activity
METAR KEOE 171715Z AUTO 06008G16KT 10SM CLR 14/M02 A3049 RMK AO2

More Conditions Fewer Conditions

10-Day Forecast

Almanac

Astronomy

Apr. 17, 2014 Rise Set
Actual Time 6:53 AM EDT 8:00 PM EDT
Civil Twilight 6:27 AM EDT 8:26 PM EDT
Nautical Twilight 5:56 AM EDT 8:57 PM EDT
Astronomical Twilight 5:24 AM EDT 9:29 PM EDT
Moon 10:39 PM EDT 8:28 AM EDT
Length of Visible Light 13h 59m
Length of Day
13h 07m
Tomorrow will be 2m 1s longer.
Waning Gibbous, 93% of the Moon is Illuminated
Today
Waning Gibbous
Apr 22
Last Quarter
Apr 29
New
May 6
First Quarter
May 14
Full

Today's Extremes

State Highs State Lows

Community

  • New Day
    New Day
  • Lake Michigan Sunrise
    Lake Michigan Sunrise
  • sunset from izmir, narlıdere
    sunset from izmir, narlıdere
  • oregon cherry
    oregon cherry
  • Sunset over the Bay
    Sunset over the Bay

WunderPhotos

Upload Photos

1,702,077 photos uploaded!

Nearby

Air Quality

  Air Quality AQ Index Pollutant
Yesterday Good
OZONE
Current Good
OZONE
Thursday Good
OZONE

Snow Depth

Station Depth Elevation
No new snow has been reported.

Coastal Water Temperatures

Place Temperature
No Stations Reporting

Earthquake Activity

City Distance Mag. Time & Date
No recent earthquake activity has been reported nearby.
Minimum magnitude displayed is 2.5.

Nearby Weather Stations

Station Location Temp. Dew Point Humidity Wind Precip. Elev Updated Type
Little Mountain, Little Mountain, SC 61.2 °F 32 °F 34% NE  at  3.5 mph 0.00 in / hr 617 ft 1:25 PM EDT Rapid Fire
RAWS WHITMIRE SC, Carlisle, SC 58 °F 26 °F 29% East  at  6 mph 0.00 in / hr 509 ft 12:03 PM EDT MADIS
Saluda, SC 62.8 °F 29 °F 28% North  at  3.1 mph 0.00 in / hr 453 ft 3:25 PM GST Rapid Fire
Lake Rabon, Laurens, SC 58.6 °F 30 °F 34% East  at  1.0 mph 0.00 in / hr 620 ft 1:25 PM EDT Normal
Cherokee Hills, Greenwood, SC 57.7 °F 34 °F 40% NE  at  6.0 mph 0.00 in / hr 630 ft 1:25 PM EDT Normal

Show More Stations Show Fewer Stations

What do you think?

We're not finished. Please let us know what you like, what you don't like, and what you are still missing.